Time;durP1;ratioP1;P1;durP2;ratioP2;P2;SDS_P1;SDS_P2;PMS_P1;PMS_P2;Temp;Humidity;BMP_temperature;BMP_pressure;BME280_temperature;BME280_humidity;BME280_pressure;Samples;Min_cycle;Max_cycle;Signal;HPM_P1;HPM_P2
2023/07/12 00:00:01;;;;;;;;;;;;;;;20.03;54.65527;100901.1;;;;-67
2023/07/12 00:04:54;;;;;;;;;;;;;;;20.03;54.70117;100915.7;;;;-68
2023/07/12 00:09:54;;;;;;;;;;;;;;;20;55.26563;100907.5;;;;-69
2023/07/12 00:13:02;;;;;;;0.2;0;;;;;;;;;;;;;-67
2023/07/12 00:14:54;;;;;;;;;;;;;;;19.98;55.60547;100906.3;;;;-69
2023/07/12 00:19:54;;;;;;;;;;;;;;;20.01;56.38184;100908.6;;;;-67
2023/07/12 00:24:54;;;;;;;;;;;;;;;19.97;56.8457;100890;;;;-68
2023/07/12 00:29:54;;;;;;;;;;;;;;;19.97;57.02637;100874.4;;;;-68
2023/07/12 00:34:55;;;;;;;;;;;;;;;19.95;56.8877;100869.8;;;;-70
2023/07/12 00:39:54;;;;;;;;;;;;;;;19.96;57.86914;100883.4;;;;-69
2023/07/12 00:43:11;;;;;;;0.2;0;;;;;;;;;;;;;-69
2023/07/12 00:44:57;;;;;;;;;;;;;;;19.93;57.86426;100879.8;;;;-70
2023/07/12 00:49:54;;;;;;;;;;;;;;;19.93;58.52539;100887.8;;;;-67
2023/07/12 00:54:56;;;;;;;;;;;;;;;19.91;59.47656;100883;;;;-66
2023/07/12 00:59:55;;;;;;;;;;;;;;;19.91;59.30762;100881.1;;;;-70
2023/07/12 01:04:55;;;;;;;;;;;;;;;19.87;59.76758;100861.5;;;;-69
2023/07/12 01:09:54;;;;;;;;;;;;;;;19.85;59.34473;100833.2;;;;-69
2023/07/12 01:13:06;;;;;;;0.2;0.1;;;;;;;;;;;;;-69
2023/07/12 01:14:54;;;;;;;;;;;;;;;19.83;59.06836;100817.9;;;;-69
2023/07/12 01:19:54;;;;;;;;;;;;;;;19.8;59.51953;100837.1;;;;-68
2023/07/12 01:24:54;;;;;;;;;;;;;;;19.78;59.5957;100849.2;;;;-68
2023/07/12 01:29:57;;;;;;;;;;;;;;;19.75;59.44434;100837.3;;;;-68
2023/07/12 01:34:54;;;;;;;;;;;;;;;19.71;60.12109;100865;;;;-70
2023/07/12 01:39:54;;;;;;;;;;;;;;;19.65;60.10059;100855.9;;;;-68
2023/07/12 01:43:10;;;;;;;0.2;0;;;;;;;;;;;;;-69
2023/07/12 01:44:54;;;;;;;;;;;;;;;19.64;60.77148;100879.1;;;;-68
2023/07/12 01:49:57;;;;;;;;;;;;;;;19.62;60.47266;100881.1;;;;-68
2023/07/12 01:54:54;;;;;;;;;;;;;;;19.56;61.67969;100860;;;;-69
2023/07/12 01:59:57;;;;;;;;;;;;;;;19.56;61.05566;100863.6;;;;-68
2023/07/12 02:04:54;;;;;;;;;;;;;;;19.52;61.0166;100841.4;;;;-69
2023/07/12 02:10:05;;;;;;;;;;;;;;;19.49;62.04688;100880.9;;;;-69
2023/07/12 02:13:12;;;;;;;0.2;0.1;;;;;;;;;;;;;-69
2023/07/12 02:14:54;;;;;;;;;;;;;;;19.47;61.55469;100864.2;;;;-68
2023/07/12 02:19:54;;;;;;;;;;;;;;;19.49;61.91992;100851.2;;;;-68
2023/07/12 02:24:54;;;;;;;;;;;;;;;19.49;62.39844;100848.1;;;;-69
2023/07/12 02:29:54;;;;;;;;;;;;;;;19.47;62.81348;100828.1;;;;-68
2023/07/12 02:34:54;;;;;;;;;;;;;;;19.52;62.51563;100836.7;;;;-68
2023/07/12 02:39:54;;;;;;;;;;;;;;;19.54;61.89258;100829.7;;;;-68
2023/07/12 02:43:15;;;;;;;0.2;0.1;;;;;;;;;;;;;-67
2023/07/12 02:44:55;;;;;;;;;;;;;;;19.53;62.0166;100839.8;;;;-68
2023/07/12 02:49:54;;;;;;;;;;;;;;;19.5;63.03418;100847.6;;;;-69
2023/07/12 02:54:54;;;;;;;;;;;;;;;19.48;63.12207;100852.5;;;;-71
2023/07/12 02:59:54;;;;;;;;;;;;;;;19.44;62.95801;100843.3;;;;-68
2023/07/12 03:04:55;;;;;;;;;;;;;;;19.42;63.49902;100842.5;;;;-68
2023/07/12 03:09:56;;;;;;;;;;;;;;;19.41;63.2832;100843.1;;;;-68
2023/07/12 03:13:18;;;;;;;0.2;0.1;;;;;;;;;;;;;-68
2023/07/12 03:14:54;;;;;;;;;;;;;;;19.39;63.05273;100844.4;;;;-69
2023/07/12 03:19:56;;;;;;;;;;;;;;;19.37;63.33203;100846.8;;;;-69
2023/07/12 03:24:54;;;;;;;;;;;;;;;19.32;63.87207;100848.2;;;;-67
2023/07/12 03:29:54;;;;;;;;;;;;;;;19.32;64.35938;100854.2;;;;-68
2023/07/12 03:34:54;;;;;;;;;;;;;;;19.29;64.95703;100858.6;;;;-69
2023/07/12 03:39:55;;;;;;;;;;;;;;;19.29;65.03516;100849.9;;;;-68
2023/07/12 03:43:21;;;;;;;0.2;0;;;;;;;;;;;;;-68
2023/07/12 03:44:54;;;;;;;;;;;;;;;19.28;64.8623;100856.5;;;;-68
2023/07/12 03:49:54;;;;;;;;;;;;;;;19.25;64.93848;100862.6;;;;-70
2023/07/12 03:54:54;;;;;;;;;;;;;;;19.24;65.07324;100867.1;;;;-69
2023/07/12 03:59:54;;;;;;;;;;;;;;;19.2;64.93066;100868.9;;;;-71
2023/07/12 04:04:54;;;;;;;;;;;;;;;19.17;65.90137;100859.3;;;;-68
2023/07/12 04:09:54;;;;;;;;;;;;;;;19.14;65.56934;100866.2;;;;-68
2023/07/12 04:13:24;;;;;;;0.2;0;;;;;;;;;;;;;-68
2023/07/12 04:14:54;;;;;;;;;;;;;;;19.12;65.9502;100865.6;;;;-68
2023/07/12 04:19:54;;;;;;;;;;;;;;;19.09;65.57129;100865.9;;;;-69
2023/07/12 04:24:56;;;;;;;;;;;;;;;19.08;65.77539;100885.9;;;;-67
2023/07/12 04:29:54;;;;;;;;;;;;;;;19.05;66.13379;100875.7;;;;-68
2023/07/12 04:34:56;;;;;;;;;;;;;;;19.07;66.00977;100904.2;;;;-69
2023/07/12 04:39:54;;;;;;;;;;;;;;;19.09;66.17383;100901;;;;-69
2023/07/12 04:43:26;;;;;;;0.3;0.1;;;;;;;;;;;;;-68
2023/07/12 04:44:54;;;;;;;;;;;;;;;19.09;66.15039;100888.1;;;;-69
2023/07/12 04:49:57;;;;;;;;;;;;;;;19.13;66.17969;100879.3;;;;-69
2023/07/12 04:54:59;;;;;;;;;;;;;;;19.21;66.47266;100897.1;;;;-68
2023/07/12 04:59:54;;;;;;;;;;;;;;;19.22;65.80664;100891;;;;-68
2023/07/12 05:04:54;;;;;;;;;;;;;;;19.3;66.32813;100902.1;;;;-69
2023/07/12 05:09:54;;;;;;;;;;;;;;;19.41;66.92285;100897.5;;;;-71
2023/07/12 05:13:30;;;;;;;0.2;0.1;;;;;;;;;;;;;-68
2023/07/12 05:14:54;;;;;;;;;;;;;;;19.45;66.79297;100885.8;;;;-68
2023/07/12 05:19:54;;;;;;;;;;;;;;;19.47;66.86426;100899.1;;;;-67
2023/07/12 05:24:54;;;;;;;;;;;;;;;19.54;66.34277;100907.8;;;;-68
2023/07/12 05:29:54;;;;;;;;;;;;;;;19.59;67.51758;100909.3;;;;-68
2023/07/12 05:34:56;;;;;;;;;;;;;;;19.6;66.90625;100902.6;;;;-69
2023/07/12 05:39:54;;;;;;;;;;;;;;;19.61;66.7373;100918.1;;;;-69
2023/07/12 05:43:33;;;;;;;1.4;0.2;;;;;;;;;;;;;-69
2023/07/12 05:44:54;;;;;;;;;;;;;;;19.63;67.08105;100917.9;;;;-69
2023/07/12 05:49:55;;;;;;;;;;;;;;;19.66;66.31445;100914.7;;;;-68
2023/07/12 05:54:54;;;;;;;;;;;;;;;19.67;66.39551;100927.7;;;;-69
2023/07/12 05:59:54;;;;;;;;;;;;;;;19.69;66.59082;100928.9;;;;-68
2023/07/12 06:04:54;;;;;;;;;;;;;;;19.74;66.37109;100925.6;;;;-69
2023/07/12 06:09:54;;;;;;;;;;;;;;;19.82;65.5791;100934.5;;;;-68
2023/07/12 06:13:35;;;;;;;0.3;0.2;;;;;;;;;;;;;-68
2023/07/12 06:14:54;;;;;;;;;;;;;;;19.89;65.70117;100938.8;;;;-67
2023/07/12 06:19:54;;;;;;;;;;;;;;;20.03;65.69922;100938.8;;;;-68
2023/07/12 06:24:54;;;;;;;;;;;;;;;20.13;65.44141;100947.5;;;;-68
2023/07/12 06:29:54;;;;;;;;;;;;;;;20.14;65.31836;100949.1;;;;-69
2023/07/12 06:34:54;;;;;;;;;;;;;;;20.14;65.35156;100959.9;;;;-68
2023/07/12 06:39:54;;;;;;;;;;;;;;;20.1;65.66406;100963.6;;;;-67
2023/07/12 06:43:38;;;;;;;0.2;0;;;;;;;;;;;;;-69
2023/07/12 06:44:54;;;;;;;;;;;;;;;20.1;65.56152;100964.2;;;;-68
2023/07/12 06:49:54;;;;;;;;;;;;;;;20.07;65.75098;100969.3;;;;-67
2023/07/12 06:54:54;;;;;;;;;;;;;;;20.17;66.77637;100976.2;;;;-69
2023/07/12 06:59:54;;;;;;;;;;;;;;;20.78;65.70801;100970.6;;;;-68
2023/07/12 07:04:54;;;;;;;;;;;;;;;21.42;64.74219;100975.7;;;;-69
2023/07/12 07:09:55;;;;;;;;;;;;;;;21.62;63.74512;100982.4;;;;-69
2023/07/12 07:13:43;;;;;;;0.4;0.3;;;;;;;;;;;;;-70
2023/07/12 07:14:57;;;;;;;;;;;;;;;21.56;64.67188;100988.9;;;;-69
2023/07/12 07:19:54;;;;;;;;;;;;;;;21.37;65.01855;100985.5;;;;-69
2023/07/12 07:24:54;;;;;;;;;;;;;;;21.22;65.71484;100995;;;;-69
2023/07/12 07:29:54;;;;;;;;;;;;;;;21.36;65.29199;100998.2;;;;-70
2023/07/12 07:34:54;;;;;;;;;;;;;;;21.68;64.17578;101002.3;;;;-68
2023/07/12 07:39:54;;;;;;;;;;;;;;;22.17;62.53223;101011.2;;;;-69
2023/07/12 07:43:45;;;;;;;0.2;0.1;;;;;;;;;;;;;-70
2023/07/12 07:44:54;;;;;;;;;;;;;;;22.32;61.26074;101019.2;;;;-68
2023/07/12 07:49:54;;;;;;;;;;;;;;;22.1;61.55273;101041;;;;-69
2023/07/12 07:54:54;;;;;;;;;;;;;;;21.84;62.01855;101050.6;;;;-69
2023/07/12 07:59:55;;;;;;;;;;;;;;;21.69;62.72754;101054.3;;;;-69
2023/07/12 08:04:54;;;;;;;;;;;;;;;22.02;62.12402;101048.3;;;;-69
2023/07/12 08:09:54;;;;;;;;;;;;;;;22.72;59.96582;101061.1;;;;-68
2023/07/12 08:13:50;;;;;;;0.4;0.2;;;;;;;;;;;;;-70
2023/07/12 08:14:54;;;;;;;;;;;;;;;23.07;58.67383;101069.8;;;;-70
2023/07/12 08:19:54;;;;;;;;;;;;;;;23.19;57.89746;101074.5;;;;-68
2023/07/12 08:24:54;;;;;;;;;;;;;;;23.24;58.17969;101091.6;;;;-69
2023/07/12 08:29:54;;;;;;;;;;;;;;;23.53;57.23047;101082.1;;;;-68
2023/07/12 08:34:56;;;;;;;;;;;;;;;23.89;56.62109;101087.1;;;;-68
2023/07/12 08:39:54;;;;;;;;;;;;;;;24.21;56.15527;101092;;;;-69
2023/07/12 08:43:54;;;;;;;0.2;0;;;;;;;;;;;;;-70
2023/07/12 08:44:54;;;;;;;;;;;;;;;24.7;54.8584;101102.9;;;;-70
2023/07/12 08:49:54;;;;;;;;;;;;;;;24.88;54.05176;101107.3;;;;-71
2023/07/12 08:54:54;;;;;;;;;;;;;;;24.91;53.30566;101120.9;;;;-73
2023/07/12 09:00:02;;;;;;;;;;;;;;;24.59;54.26855;101119;;;;-69
2023/07/12 09:04:56;;;;;;;;;;;;;;;24.88;53.4873;101126.6;;;;-68
2023/07/12 09:09:54;;;;;;;;;;;;;;;25.24;52.22559;101130.9;;;;-68
2023/07/12 09:13:57;;;;;;;0.2;0;;;;;;;;;;;;;-69
2023/07/12 09:14:56;;;;;;;;;;;;;;;25.27;52.11426;101134.3;;;;-69
2023/07/12 09:19:54;;;;;;;;;;;;;;;25.29;52.24414;101136.8;;;;-68
2023/07/12 09:24:55;;;;;;;;;;;;;;;25.78;51.33008;101137.3;;;;-68
2023/07/12 09:30:01;;;;;;;;;;;;;;;25.79;50.78809;101141.9;;;;-70
2023/07/12 09:34:55;;;;;;;;;;;;;;;26.16;50.4834;101143.1;;;;-69
2023/07/12 09:40:02;;;;;;;;;;;;;;;26.43;49.04297;101147.6;;;;-70
2023/07/12 09:44:01;;;;;;;0.2;0;;;;;;;;;;;;;-69
2023/07/12 09:44:54;;;;;;;;;;;;;;;26.6;48.29688;101151.6;;;;-69
2023/07/12 09:50:00;;;;;;;;;;;;;;;26.58;48.16699;101149;;;;-69
2023/07/12 09:54:57;;;;;;;;;;;;;;;26.59;47.97168;101152.6;;;;-69
2023/07/12 10:00:02;;;;;;;;;;;;;;;26.76;47.45605;101147.1;;;;-70
2023/07/12 10:04:58;;;;;;;;;;;;;;;26.83;47.19824;101149.2;;;;-69
2023/07/12 10:09:55;;;;;;;;;;;;;;;27.16;46.70898;101146.5;;;;-69
2023/07/12 10:14:07;;;;;;;0.2;0;;;;;;;;;;;;;-70
2023/07/12 10:14:55;;;;;;;;;;;;;;;27.41;46.02734;101146.9;;;;-69
2023/07/12 10:19:57;;;;;;;;;;;;;;;27.6;45.30273;101143.7;;;;-69
2023/07/12 10:24:55;;;;;;;;;;;;;;;27.73;44.57227;101151.1;;;;-69
2023/07/12 10:29:57;;;;;;;;;;;;;;;27.88;44.55078;101157;;;;-69
2023/07/12 10:34:58;;;;;;;;;;;;;;;27.69;44.12598;101169;;;;-69
2023/07/12 10:39:54;;;;;;;;;;;;;;;27.71;42.70898;101166.1;;;;-69
2023/07/12 10:44:12;;;;;;;0.2;0;;;;;;;;;;;;;-69
2023/07/12 10:44:57;;;;;;;;;;;;;;;27.6;42.35059;101170.1;;;;-69
2023/07/12 10:50:01;;;;;;;;;;;;;;;27.76;41.66699;101178.5;;;;-68
2023/07/12 10:55:06;;;;;;;;;;;;;;;28.01;41.6084;101188.1;;;;-69
2023/07/12 11:00:02;;;;;;;;;;;;;;;27.88;40.73438;101192.4;;;;-69
2023/07/12 11:04:54;;;;;;;;;;;;;;;27.95;40.68262;101195.3;;;;-69
2023/07/12 11:10:05;;;;;;;;;;;;;;;28.06;41.2168;101204.1;;;;-74
2023/07/12 11:14:28;;;;;;;0.1;0;;;;;;;;;;;;;-76
2023/07/12 11:14:55;;;;;;;;;;;;;;;28.1;40.62598;101204.6;;;;-74
2023/07/12 11:20:05;;;;;;;;;;;;;;;27.89;41.70215;101219.1;;;;-69
2023/07/12 11:25:02;;;;;;;;;;;;;;;27.86;42.07129;101223.6;;;;-69
2023/07/12 11:29:57;;;;;;;;;;;;;;;27.99;40.83789;101220.7;;;;-69
2023/07/12 11:35:04;;;;;;;;;;;;;;;28.08;41.96387;101221.8;;;;-68
2023/07/12 11:39:55;;;;;;;;;;;;;;;28.35;41.46484;101224.4;;;;-70
2023/07/12 11:44:20;;;;;;;0.1;0;;;;;;;;;;;;;-69
2023/07/12 11:45:05;;;;;;;;;;;;;;;28.26;41.41016;101222.4;;;;-71
2023/07/12 11:49:58;;;;;;;;;;;;;;;28.21;41.41699;101221;;;;-69
2023/07/12 11:54:54;;;;;;;;;;;;;;;28.26;41.74805;101224.1;;;;-69
2023/07/12 11:59:56;;;;;;;;;;;;;;;28.07;42.02148;101234;;;;-69
2023/07/12 12:05:00;;;;;;;;;;;;;;;28.1;42.6875;101234.7;;;;-69
2023/07/12 12:09:54;;;;;;;;;;;;;;;28.07;42.40625;101241.5;;;;-69
2023/07/12 12:14:27;;;;;;;0.2;0;;;;;;;;;;;;;-70
2023/07/12 12:14:54;;;;;;;;;;;;;;;28.04;41.50684;101242.2;;;;-70
2023/07/12 12:20:04;;;;;;;;;;;;;;;28.05;42.7998;101242.4;;;;-68
2023/07/12 12:24:57;;;;;;;;;;;;;;;28.28;42.64746;101254.1;;;;-70
2023/07/12 12:29:57;;;;;;;;;;;;;;;28.52;42.05176;101246.6;;;;-69
2023/07/12 12:34:57;;;;;;;;;;;;;;;28.39;42.55273;101248.6;;;;-69
2023/07/12 12:40:04;;;;;;;;;;;;;;;28.41;42.34473;101249.7;;;;-69
2023/07/12 12:44:30;;;;;;;0.1;0;;;;;;;;;;;;;-68
2023/07/12 12:44:55;;;;;;;;;;;;;;;28.77;42.49414;101245.9;;;;-68
2023/07/12 12:49:54;;;;;;;;;;;;;;;28.99;41.72266;101242.8;;;;-69
2023/07/12 12:54:54;;;;;;;;;;;;;;;29.05;41.94824;101252.3;;;;-69
2023/07/12 12:59:53;;;;;;;;;;;;;;;29.07;40.88867;101251.8;;;;-68
2023/07/12 13:04:56;;;;;;;;;;;;;;;28.56;42.27734;101255.5;;;;-69
2023/07/12 13:09:54;;;;;;;;;;;;;;;28.51;42.13281;101270;;;;-69
2023/07/12 13:14:34;;;;;;;0.1;0;;;;;;;;;;;;;-70
2023/07/12 13:14:54;;;;;;;;;;;;;;;28.61;41.99121;101249.9;;;;-70
2023/07/12 13:19:55;;;;;;;;;;;;;;;28.75;40.60352;101272.3;;;;-70
2023/07/12 13:24:56;;;;;;;;;;;;;;;28.41;41.01563;101277.5;;;;-69
2023/07/12 13:29:54;;;;;;;;;;;;;;;28.33;40.28613;101286.2;;;;-69
2023/07/12 13:34:54;;;;;;;;;;;;;;;28.23;41.6748;101280.5;;;;-70
2023/07/12 13:39:54;;;;;;;;;;;;;;;28.57;41.06445;101277.3;;;;-69
2023/07/12 13:44:39;;;;;;;0.2;0;;;;;;;;;;;;;-71
2023/07/12 13:45:02;;;;;;;;;;;;;;;28.74;40.4043;101284.8;;;;-69
2023/07/12 13:49:54;;;;;;;;;;;;;;;28.61;40.13477;101281.1;;;;-69
2023/07/12 13:54:54;;;;;;;;;;;;;;;28.41;40.94629;101274.9;;;;-69
2023/07/12 13:59:54;;;;;;;;;;;;;;;28.58;40.45898;101276.7;;;;-70
2023/07/12 14:04:54;;;;;;;;;;;;;;;28.59;39.27148;101284.2;;;;-69
2023/07/12 14:09:54;;;;;;;;;;;;;;;28.79;39.9541;101282.2;;;;-68
2023/07/12 14:14:45;;;;;;;0.2;0;;;;;;;;;;;;;-68
2023/07/12 14:14:55;;;;;;;;;;;;;;;28.92;39.49805;101284.5;;;;-71
2023/07/12 14:19:55;;;;;;;;;;;;;;;28.94;39.65137;101287.2;;;;-68
2023/07/12 14:24:55;;;;;;;;;;;;;;;28.87;38.66406;101289.7;;;;-69
2023/07/12 14:29:55;;;;;;;;;;;;;;;28.86;39.33008;101292.9;;;;-70
2023/07/12 14:34:54;;;;;;;;;;;;;;;28.81;39.2793;101298.7;;;;-68
2023/07/12 14:39:55;;;;;;;;;;;;;;;28.9;38.74805;101297;;;;-69
2023/07/12 14:44:49;;;;;;;0.2;0;;;;;;;;;;;;;-69
2023/07/12 14:44:59;;;;;;;;;;;;;;;28.88;38.40918;101289.9;;;;-69
2023/07/12 14:49:56;;;;;;;;;;;;;;;28.72;37.74121;101290;;;;-68
2023/07/12 14:54:54;;;;;;;;;;;;;;;28.73;38.5127;101290.9;;;;-68
2023/07/12 14:59:54;;;;;;;;;;;;;;;28.85;38.69824;101294.1;;;;-69
2023/07/12 15:04:55;;;;;;;;;;;;;;;28.72;38.89746;101281.6;;;;-70
2023/07/12 15:09:58;;;;;;;;;;;;;;;28.58;38.67578;101287.2;;;;-68
2023/07/12 15:14:54;;;;;;;;;;;;;;;28.24;38.72754;101292.6;;;;-70
2023/07/12 15:15:06;;;;;;;0.1;0;;;;;;;;;;;;;-70
2023/07/12 15:19:54;;;;;;;;;;;;;;;28.27;39.04492;101290.2;;;;-69
2023/07/12 15:24:54;;;;;;;;;;;;;;;28.43;38.75488;101294.2;;;;-73
2023/07/12 15:29:54;;;;;;;;;;;;;;;28.09;39.11133;101290.1;;;;-69
2023/07/12 15:34:53;;;;;;;;;;;;;;;28.24;39.04199;101283.9;;;;-69
2023/07/12 15:39:54;;;;;;;;;;;;;;;28.31;38.75684;101282.9;;;;-69
2023/07/12 15:44:54;;;;;;;;;;;;;;;28.33;38.91016;101280.3;;;;-68
2023/07/12 15:45:04;;;;;;;0.1;0;;;;;;;;;;;;;-68
2023/07/12 15:49:54;;;;;;;;;;;;;;;28.39;38.53027;101283;;;;-69
2023/07/12 15:54:54;;;;;;;;;;;;;;;28.23;38.72656;101285.1;;;;-69
2023/07/12 15:59:54;;;;;;;;;;;;;;;28.18;38.6416;101292.6;;;;-68
2023/07/12 16:04:54;;;;;;;;;;;;;;;28.21;38.79492;101289;;;;-70
2023/07/12 16:09:54;;;;;;;;;;;;;;;27.77;39.78223;101292.2;;;;-71
2023/07/12 16:14:56;;;;;;;;;;;;;;;27.8;39.78516;101296.8;;;;-70
2023/07/12 16:15:09;;;;;;;0.1;0;;;;;;;;;;;;;-70
2023/07/12 16:19:55;;;;;;;;;;;;;;;27.58;39.78906;101290.3;;;;-71
2023/07/12 16:24:54;;;;;;;;;;;;;;;27.58;40.17285;101300.4;;;;-68
2023/07/12 16:29:56;;;;;;;;;;;;;;;27.48;40.19824;101296.5;;;;-69
2023/07/12 16:34:54;;;;;;;;;;;;;;;27.41;40.41309;101296;;;;-70
2023/07/12 16:39:55;;;;;;;;;;;;;;;27.05;41.125;101293.7;;;;-69
2023/07/12 16:44:54;;;;;;;;;;;;;;;26.89;41.15625;101292.7;;;;-70
2023/07/12 16:45:21;;;;;;;0.2;0;;;;;;;;;;;;;-70
2023/07/12 16:49:54;;;;;;;;;;;;;;;26.63;41.31836;101283.3;;;;-69
2023/07/12 16:54:53;;;;;;;;;;;;;;;26.53;41.28613;101284.7;;;;-69
2023/07/12 16:59:54;;;;;;;;;;;;;;;26.25;41.33105;101276.6;;;;-70
2023/07/12 17:04:54;;;;;;;;;;;;;;;26.18;41.56836;101277.4;;;;-71
2023/07/12 17:09:55;;;;;;;;;;;;;;;26.01;41.86523;101280.5;;;;-69
2023/07/12 17:14:54;;;;;;;;;;;;;;;25.93;42.05469;101287.3;;;;-70
2023/07/12 17:15:17;;;;;;;0.2;0;;;;;;;;;;;;;-68
2023/07/12 17:19:57;;;;;;;;;;;;;;;25.81;42.15918;101280.2;;;;-69
2023/07/12 17:24:54;;;;;;;;;;;;;;;25.54;41.9834;101276.5;;;;-72
2023/07/12 17:29:59;;;;;;;;;;;;;;;25.47;41.78027;101267.2;;;;-69
2023/07/12 17:34:54;;;;;;;;;;;;;;;25.35;41.7002;101265;;;;-69
2023/07/12 17:39:54;;;;;;;;;;;;;;;25.14;42.09668;101270.9;;;;-70
2023/07/12 17:44:53;;;;;;;;;;;;;;;25.06;41.97266;101280.5;;;;-70
2023/07/12 17:45:27;;;;;;;0.2;0;;;;;;;;;;;;;-69
2023/07/12 17:49:55;;;;;;;;;;;;;;;24.82;41.77734;101281.4;;;;-70
2023/07/12 17:54:54;;;;;;;;;;;;;;;24.75;41.94531;101272.8;;;;-69
2023/07/12 17:59:53;;;;;;;;;;;;;;;24.7;42.07813;101279.6;;;;-71
2023/07/12 18:04:54;;;;;;;;;;;;;;;24.59;42.14844;101271.2;;;;-69
2023/07/12 18:09:57;;;;;;;;;;;;;;;24.43;42.57324;101278;;;;-70
2023/07/12 18:14:54;;;;;;;;;;;;;;;24.21;42.875;101280;;;;-69
2023/07/12 18:15:27;;;;;;;0.2;0;;;;;;;;;;;;;-70
2023/07/12 18:19:54;;;;;;;;;;;;;;;24.07;43.42676;101277.8;;;;-70
2023/07/12 18:24:54;;;;;;;;;;;;;;;23.95;43.55469;101280.8;;;;-69
2023/07/12 18:29:54;;;;;;;;;;;;;;;23.86;44.0752;101278.6;;;;-72
2023/07/12 18:34:56;;;;;;;;;;;;;;;23.64;44.69824;101281.2;;;;-73
2023/07/12 18:39:57;;;;;;;;;;;;;;;23.53;44.38867;101278.1;;;;-71
2023/07/12 18:44:59;;;;;;;;;;;;;;;23.4;44.50293;101275.7;;;;-74
2023/07/12 18:45:34;;;;;;;0.2;0;;;;;;;;;;;;;-73
2023/07/12 18:49:56;;;;;;;;;;;;;;;23.23;44.77344;101284.1;;;;-73
2023/07/12 18:54:54;;;;;;;;;;;;;;;23.07;44.1123;101282.4;;;;-73
2023/07/12 18:59:57;;;;;;;;;;;;;;;22.91;44.46582;101284.3;;;;-72
2023/07/12 19:04:54;;;;;;;;;;;;;;;22.72;43.79102;101285.8;;;;-70
2023/07/12 19:09:53;;;;;;;;;;;;;;;22.55;44.19922;101291.3;;;;-68
2023/07/12 19:15:00;;;;;;;;;;;;;;;22.36;44.6875;101286.1;;;;-68
2023/07/12 19:15:33;;;;;;;0.2;0;;;;;;;;;;;;;-70
2023/07/12 19:19:57;;;;;;;;;;;;;;;22.2;44.90039;101279.3;;;;-70
2023/07/12 19:24:54;;;;;;;;;;;;;;;22.07;45.50684;101279.3;;;;-68
2023/07/12 19:29:54;;;;;;;;;;;;;;;21.98;45.54297;101296.4;;;;-69
2023/07/12 19:34:55;;;;;;;;;;;;;;;21.86;46.13867;101297.8;;;;-70
2023/07/12 19:39:53;;;;;;;;;;;;;;;21.75;46.31152;101311.5;;;;-69
2023/07/12 19:44:54;;;;;;;;;;;;;;;21.58;47.74805;101322.2;;;;-70
2023/07/12 19:45:36;;;;;;;0.2;0.1;;;;;;;;;;;;;-69
2023/07/12 19:49:53;;;;;;;;;;;;;;;21.48;47.80664;101332.8;;;;-71
2023/07/12 19:54:54;;;;;;;;;;;;;;;21.4;48.69141;101336.1;;;;-70
2023/07/12 19:59:54;;;;;;;;;;;;;;;21.31;49.24219;101344.1;;;;-71
2023/07/12 20:05:04;;;;;;;;;;;;;;;21.24;49.70508;101342.5;;;;-69
2023/07/12 20:09:53;;;;;;;;;;;;;;;21.15;51.4209;101341.4;;;;-68
2023/07/12 20:14:54;;;;;;;;;;;;;;;21.05;52.03711;101344.3;;;;-69
2023/07/12 20:15:39;;;;;;;0.2;0.1;;;;;;;;;;;;;-69
2023/07/12 20:19:54;;;;;;;;;;;;;;;20.96;52.71289;101353;;;;-71
2023/07/12 20:24:54;;;;;;;;;;;;;;;20.87;53.18262;101356.4;;;;-71
2023/07/12 20:29:54;;;;;;;;;;;;;;;20.78;53.44434;101352.5;;;;-71
2023/07/12 20:34:54;;;;;;;;;;;;;;;20.65;54.90137;101356.5;;;;-70
2023/07/12 20:39:55;;;;;;;;;;;;;;;20.59;54.37012;101351.7;;;;-69
2023/07/12 20:44:54;;;;;;;;;;;;;;;20.49;54.88184;101350.3;;;;-69
2023/07/12 20:45:43;;;;;;;0.2;0;;;;;;;;;;;;;-69
2023/07/12 20:49:55;;;;;;;;;;;;;;;20.37;55.61914;101345.8;;;;-69
2023/07/12 20:54:55;;;;;;;;;;;;;;;20.31;55.56641;101347.6;;;;-69
2023/07/12 20:59:54;;;;;;;;;;;;;;;20.22;56.36426;101341.5;;;;-68
2023/07/12 21:04:54;;;;;;;;;;;;;;;20.13;56.28418;101340.1;;;;-70
2023/07/12 21:09:54;;;;;;;;;;;;;;;20.08;56.96191;101340.8;;;;-67
2023/07/12 21:14:54;;;;;;;;;;;;;;;19.99;56.93848;101334.4;;;;-68
2023/07/12 21:15:49;;;;;;;0.2;0.1;;;;;;;;;;;;;-68
2023/07/12 21:19:55;;;;;;;;;;;;;;;19.98;56.80078;101332;;;;-69
2023/07/12 21:24:54;;;;;;;;;;;;;;;19.94;57.56934;101332.5;;;;-68
2023/07/12 21:29:54;;;;;;;;;;;;;;;19.88;58.06152;101335.1;;;;-71
2023/07/12 21:34:56;;;;;;;;;;;;;;;19.85;58.36523;101338.8;;;;-69
2023/07/12 21:44:56;;;;;;;;;;;;;;;19.83;58.26074;101333.8;;;;-69
2023/07/12 21:45:49;;;;;;;0.2;0;;;;;;;;;;;;;-70
2023/07/12 21:49:55;;;;;;;;;;;;;;;19.8;57.92676;101326.9;;;;-70
2023/07/12 21:54:56;;;;;;;;;;;;;;;19.78;57.53711;101331;;;;-69
2023/07/12 21:59:55;;;;;;;;;;;;;;;19.68;56.99023;101328;;;;-68
2023/07/12 22:04:55;;;;;;;;;;;;;;;19.61;56.70801;101337.8;;;;-70
2023/07/12 22:09:55;;;;;;;;;;;;;;;19.5;56.58008;101334.3;;;;-69
2023/07/12 22:14:54;;;;;;;;;;;;;;;19.43;56.02539;101342.8;;;;-68
2023/07/12 22:15:57;;;;;;;0.2;0.1;;;;;;;;;;;;;-70
2023/07/12 22:19:55;;;;;;;;;;;;;;;19.34;56.29883;101342.8;;;;-69
2023/07/12 22:24:54;;;;;;;;;;;;;;;19.28;56.05273;101346.1;;;;-69
2023/07/12 22:29:58;;;;;;;;;;;;;;;19.22;56.05664;101350.6;;;;-68
2023/07/12 22:34:59;;;;;;;;;;;;;;;19.1;56.25684;101358.4;;;;-70
2023/07/12 22:39:54;;;;;;;;;;;;;;;18.98;56.54883;101369.8;;;;-68
2023/07/12 22:44:54;;;;;;;;;;;;;;;18.93;56.41699;101362;;;;-68
2023/07/12 22:45:55;;;;;;;0.2;0;;;;;;;;;;;;;-69
2023/07/12 22:49:56;;;;;;;;;;;;;;;18.85;56.79297;101357.2;;;;-69
2023/07/12 22:54:55;;;;;;;;;;;;;;;18.75;56.66699;101350.4;;;;-69
2023/07/12 22:59:54;;;;;;;;;;;;;;;18.71;56.29785;101354.9;;;;-71
2023/07/12 23:04:54;;;;;;;;;;;;;;;18.62;56.92285;101356.1;;;;-68
2023/07/12 23:09:54;;;;;;;;;;;;;;;18.58;57.16699;101362.3;;;;-69
2023/07/12 23:14:55;;;;;;;;;;;;;;;18.55;57.56055;101361.7;;;;-68
2023/07/12 23:15:58;;;;;;;0.2;0;;;;;;;;;;;;;-69
2023/07/12 23:19:54;;;;;;;;;;;;;;;18.51;57.41895;101367.9;;;;-69
2023/07/12 23:24:55;;;;;;;;;;;;;;;18.42;58.42773;101367.3;;;;-68
2023/07/12 23:29:54;;;;;;;;;;;;;;;18.43;58.38379;101365.8;;;;-69
2023/07/12 23:35:03;;;;;;;;;;;;;;;18.39;58.24219;101360.5;;;;-70
2023/07/12 23:39:54;;;;;;;;;;;;;;;18.35;58.44141;101366.7;;;;-69
2023/07/12 23:44:54;;;;;;;;;;;;;;;18.31;58.50391;101360.3;;;;-69
2023/07/12 23:46:02;;;;;;;0.2;0.1;;;;;;;;;;;;;-67
2023/07/12 23:49:54;;;;;;;;;;;;;;;18.33;58.85742;101355;;;;-68
2023/07/12 23:54:54;;;;;;;;;;;;;;;18.33;58.72168;101350.4;;;;-69
2023/07/12 23:59:57;;;;;;;;;;;;;;;18.26;59.21191;101355.1;;;;-69
